ジッダ の空港の天気 - METARとTAF

キング・アブドゥルアズィーズ国際空港(ジッダ) ( OEJN / JED ) - サウジアラビア ジッダ
飛行場実況気象(Metar)
観測時間04/27 19:00 +03 (04/27 16:00 UTC)
風向・風速北西 6m/s
視程8000m
天気現象
少しの雲 雲底高度 910m
全天の8割程度の雲 雲底高度 1220m
気温28℃
湿度55%
気圧1008hPa
METAROEJN 271600Z 31012KT 8000 TS FEW030CB BKN040 28/18 Q1008 TEMPO TS
過去の天気等 Google飛行場航空写真 Wunderground天気予報

過去48時間のMETAR

飛行場予報(TAF)
発表時間: 4/27 16:00 +03 (4/27 13:00 UTC)
予報対象時間: 27日15時 +03 ~ 28日21時 +03
風向・風速北西 8m/s
視程7,000m
全天の4割程度の雲 雲底高度 1,220m
全天の4割程度の雲 雲底高度 3,050m
27日15時 +03 ~ 27日21時 +03 に一時的に
風向・風速不定 10m/s
視程4,000m
27日21時 +03 ~ 27日23時 +03 に徐々に
風向・風速北 5m/s
TAF AMD OEJN 271300Z 2712/2818 32015KT 7000 SCT040 SCT100
TEMPO 2712/2718 VRB20KT 4000 BLDU/TSRA FEW035CB
BECMG 2718/2720 36010KT